sensor_id;sensor_type;location;lat;lon;timestamp;P1;durP1;ratioP1;P2;durP2;ratioP2
37199;SDS011;23096;50.892;16.746;2023-05-28T00:02:00;5.50;;;3.50;;
37199;SDS011;23096;50.892;16.746;2023-05-28T00:04:25;5.50;;;3.10;;
37199;SDS011;23096;50.892;16.746;2023-05-28T00:06:51;5.90;;;3.30;;
37199;SDS011;23096;50.892;16.746;2023-05-28T00:09:18;6.80;;;2.90;;
37199;SDS011;23096;50.892;16.746;2023-05-28T00:11:44;9.30;;;3.10;;
37199;SDS011;23096;50.892;16.746;2023-05-28T00:14:10;4.40;;;2.90;;
37199;SDS011;23096;50.892;16.746;2023-05-28T00:16:36;6.40;;;2.80;;
37199;SDS011;23096;50.892;16.746;2023-05-28T00:19:02;5.60;;;3.10;;
37199;SDS011;23096;50.892;16.746;2023-05-28T00:21:29;6.30;;;2.70;;
37199;SDS011;23096;50.892;16.746;2023-05-28T00:23:58;5.20;;;2.60;;
37199;SDS011;23096;50.892;16.746;2023-05-28T00:26:24;6.30;;;3.30;;
37199;SDS011;23096;50.892;16.746;2023-05-28T00:28:51;5.20;;;3.00;;
37199;SDS011;23096;50.892;16.746;2023-05-28T00:31:17;5.50;;;2.90;;
37199;SDS011;23096;50.892;16.746;2023-05-28T00:33:42;5.60;;;2.80;;
37199;SDS011;23096;50.892;16.746;2023-05-28T00:36:09;4.80;;;3.10;;
37199;SDS011;23096;50.892;16.746;2023-05-28T00:38:36;4.00;;;2.50;;
37199;SDS011;23096;50.892;16.746;2023-05-28T00:41:02;4.50;;;2.50;;
37199;SDS011;23096;50.892;16.746;2023-05-28T00:43:28;6.40;;;3.10;;
37199;SDS011;23096;50.892;16.746;2023-05-28T00:45:54;7.90;;;2.70;;
37199;SDS011;23096;50.892;16.746;2023-05-28T00:48:22;5.00;;;3.00;;
37199;SDS011;23096;50.892;16.746;2023-05-28T00:50:49;5.80;;;2.90;;
37199;SDS011;23096;50.892;16.746;2023-05-28T00:53:15;3.80;;;2.80;;
37199;SDS011;23096;50.892;16.746;2023-05-28T00:55:41;5.30;;;3.20;;
37199;SDS011;23096;50.892;16.746;2023-05-28T00:58:07;6.30;;;3.60;;
37199;SDS011;23096;50.892;16.746;2023-05-28T01:00:33;5.80;;;2.80;;
37199;SDS011;23096;50.892;16.746;2023-05-28T01:02:59;4.00;;;2.60;;
37199;SDS011;23096;50.892;16.746;2023-05-28T01:05:25;7.60;;;3.00;;
37199;SDS011;23096;50.892;16.746;2023-05-28T01:07:51;7.20;;;2.90;;
37199;SDS011;23096;50.892;16.746;2023-05-28T01:10:16;5.70;;;2.40;;
37199;SDS011;23096;50.892;16.746;2023-05-28T01:12:42;7.40;;;3.00;;
37199;SDS011;23096;50.892;16.746;2023-05-28T01:15:09;6.60;;;3.30;;
37199;SDS011;23096;50.892;16.746;2023-05-28T01:17:36;6.80;;;3.00;;
37199;SDS011;23096;50.892;16.746;2023-05-28T01:20:03;5.70;;;2.80;;
37199;SDS011;23096;50.892;16.746;2023-05-28T01:22:40;4.20;;;2.80;;
37199;SDS011;23096;50.892;16.746;2023-05-28T01:25:16;4.70;;;3.00;;
37199;SDS011;23096;50.892;16.746;2023-05-28T01:27:43;4.90;;;2.90;;
37199;SDS011;23096;50.892;16.746;2023-05-28T01:30:09;7.10;;;2.70;;
37199;SDS011;23096;50.892;16.746;2023-05-28T01:32:37;5.70;;;2.70;;
37199;SDS011;23096;50.892;16.746;2023-05-28T01:35:06;8.30;;;3.40;;
37199;SDS011;23096;50.892;16.746;2023-05-28T01:37:35;4.40;;;2.70;;
37199;SDS011;23096;50.892;16.746;2023-05-28T01:40:03;5.70;;;2.70;;
37199;SDS011;23096;50.892;16.746;2023-05-28T01:42:30;4.90;;;3.30;;
37199;SDS011;23096;50.892;16.746;2023-05-28T01:44:58;5.50;;;2.90;;
37199;SDS011;23096;50.892;16.746;2023-05-28T01:47:30;5.30;;;3.20;;
37199;SDS011;23096;50.892;16.746;2023-05-28T01:49:57;5.30;;;2.70;;
37199;SDS011;23096;50.892;16.746;2023-05-28T01:52:22;5.50;;;3.00;;
37199;SDS011;23096;50.892;16.746;2023-05-28T01:54:49;7.10;;;2.70;;
37199;SDS011;23096;50.892;16.746;2023-05-28T01:57:15;6.20;;;3.30;;
37199;SDS011;23096;50.892;16.746;2023-05-28T01:59:40;6.60;;;3.20;;
37199;SDS011;23096;50.892;16.746;2023-05-28T02:02:07;8.60;;;3.00;;
37199;SDS011;23096;50.892;16.746;2023-05-28T02:04:33;5.40;;;3.10;;
37199;SDS011;23096;50.892;16.746;2023-05-28T02:06:59;11.20;;;3.30;;
37199;SDS011;23096;50.892;16.746;2023-05-28T02:09:24;5.40;;;3.00;;
37199;SDS011;23096;50.892;16.746;2023-05-28T02:11:50;4.60;;;2.80;;
37199;SDS011;23096;50.892;16.746;2023-05-28T02:14:17;6.20;;;2.80;;
37199;SDS011;23096;50.892;16.746;2023-05-28T02:16:45;6.80;;;2.70;;
37199;SDS011;23096;50.892;16.746;2023-05-28T02:19:13;4.00;;;2.90;;
37199;SDS011;23096;50.892;16.746;2023-05-28T02:21:40;4.60;;;2.50;;
37199;SDS011;23096;50.892;16.746;2023-05-28T02:24:05;5.80;;;3.40;;
37199;SDS011;23096;50.892;16.746;2023-05-28T02:26:31;5.40;;;3.40;;
37199;SDS011;23096;50.892;16.746;2023-05-28T02:28:58;6.30;;;3.10;;
37199;SDS011;23096;50.892;16.746;2023-05-28T02:31:24;6.30;;;3.10;;
37199;SDS011;23096;50.892;16.746;2023-05-28T02:33:50;8.30;;;3.50;;
37199;SDS011;23096;50.892;16.746;2023-05-28T02:36:15;8.00;;;4.30;;
37199;SDS011;23096;50.892;16.746;2023-05-28T02:38:41;6.80;;;3.40;;
37199;SDS011;23096;50.892;16.746;2023-05-28T02:41:08;9.00;;;3.40;;
37199;SDS011;23096;50.892;16.746;2023-05-28T02:43:34;5.50;;;3.20;;
37199;SDS011;23096;50.892;16.746;2023-05-28T02:46:01;7.10;;;3.60;;
37199;SDS011;23096;50.892;16.746;2023-05-28T02:48:27;6.80;;;3.60;;
37199;SDS011;23096;50.892;16.746;2023-05-28T02:50:53;5.40;;;3.40;;
37199;SDS011;23096;50.892;16.746;2023-05-28T02:53:42;6.70;;;3.60;;
37199;SDS011;23096;50.892;16.746;2023-05-28T02:56:07;6.60;;;3.80;;
37199;SDS011;23096;50.892;16.746;2023-05-28T02:58:35;7.00;;;3.60;;
37199;SDS011;23096;50.892;16.746;2023-05-28T03:01:03;5.00;;;3.20;;
37199;SDS011;23096;50.892;16.746;2023-05-28T03:03:29;6.90;;;3.20;;
37199;SDS011;23096;50.892;16.746;2023-05-28T03:05:54;6.80;;;3.40;;
37199;SDS011;23096;50.892;16.746;2023-05-28T03:08:20;6.40;;;3.50;;
37199;SDS011;23096;50.892;16.746;2023-05-28T03:10:46;4.00;;;2.90;;
37199;SDS011;23096;50.892;16.746;2023-05-28T03:13:11;6.70;;;2.80;;
37199;SDS011;23096;50.892;16.746;2023-05-28T03:15:37;4.90;;;2.90;;
37199;SDS011;23096;50.892;16.746;2023-05-28T03:18:02;4.80;;;3.00;;
37199;SDS011;23096;50.892;16.746;2023-05-28T03:20:31;6.60;;;3.20;;
37199;SDS011;23096;50.892;16.746;2023-05-28T03:22:57;6.90;;;3.50;;
37199;SDS011;23096;50.892;16.746;2023-05-28T03:25:24;5.90;;;2.80;;
37199;SDS011;23096;50.892;16.746;2023-05-28T03:27:52;8.40;;;3.10;;
37199;SDS011;23096;50.892;16.746;2023-05-28T03:30:19;7.10;;;2.80;;
37199;SDS011;23096;50.892;16.746;2023-05-28T03:32:50;8.50;;;3.00;;
37199;SDS011;23096;50.892;16.746;2023-05-28T03:35:16;5.10;;;3.10;;
37199;SDS011;23096;50.892;16.746;2023-05-28T03:37:42;5.60;;;3.30;;
37199;SDS011;23096;50.892;16.746;2023-05-28T03:40:08;4.50;;;3.00;;
37199;SDS011;23096;50.892;16.746;2023-05-28T03:42:34;6.40;;;3.50;;
37199;SDS011;23096;50.892;16.746;2023-05-28T03:45:01;5.60;;;3.20;;
37199;SDS011;23096;50.892;16.746;2023-05-28T03:47:27;4.20;;;3.00;;
37199;SDS011;23096;50.892;16.746;2023-05-28T03:49:56;7.70;;;3.70;;
37199;SDS011;23096;50.892;16.746;2023-05-28T03:52:24;5.50;;;3.30;;
37199;SDS011;23096;50.892;16.746;2023-05-28T03:54:52;8.30;;;4.50;;
37199;SDS011;23096;50.892;16.746;2023-05-28T03:57:18;19.20;;;8.70;;
37199;SDS011;23096;50.892;16.746;2023-05-28T03:59:44;15.00;;;8.00;;
37199;SDS011;23096;50.892;16.746;2023-05-28T04:02:09;11.60;;;6.20;;
37199;SDS011;23096;50.892;16.746;2023-05-28T04:04:35;11.10;;;4.50;;
37199;SDS011;23096;50.892;16.746;2023-05-28T04:07:01;7.90;;;4.10;;
37199;SDS011;23096;50.892;16.746;2023-05-28T04:09:26;8.30;;;4.50;;
37199;SDS011;23096;50.892;16.746;2023-05-28T04:11:53;7.50;;;4.30;;
37199;SDS011;23096;50.892;16.746;2023-05-28T04:14:19;9.90;;;5.30;;
37199;SDS011;23096;50.892;16.746;2023-05-28T04:16:46;18.60;;;8.00;;
37199;SDS011;23096;50.892;16.746;2023-05-28T04:19:11;12.20;;;7.00;;
37199;SDS011;23096;50.892;16.746;2023-05-28T04:21:37;9.20;;;5.30;;
37199;SDS011;23096;50.892;16.746;2023-05-28T04:24:03;11.60;;;6.30;;
37199;SDS011;23096;50.892;16.746;2023-05-28T04:26:30;7.00;;;4.90;;
37199;SDS011;23096;50.892;16.746;2023-05-28T04:28:58;9.40;;;5.70;;
37199;SDS011;23096;50.892;16.746;2023-05-28T04:31:25;11.90;;;6.80;;
37199;SDS011;23096;50.892;16.746;2023-05-28T04:33:52;13.60;;;7.30;;
37199;SDS011;23096;50.892;16.746;2023-05-28T04:36:19;13.70;;;7.30;;
37199;SDS011;23096;50.892;16.746;2023-05-28T04:38:45;11.70;;;6.50;;
37199;SDS011;23096;50.892;16.746;2023-05-28T04:41:11;16.80;;;6.80;;
37199;SDS011;23096;50.892;16.746;2023-05-28T04:43:39;9.90;;;5.20;;
37199;SDS011;23096;50.892;16.746;2023-05-28T04:46:07;12.50;;;6.70;;
37199;SDS011;23096;50.892;16.746;2023-05-28T04:48:34;9.20;;;5.30;;
37199;SDS011;23096;50.892;16.746;2023-05-28T04:51:03;12.80;;;5.80;;
37199;SDS011;23096;50.892;16.746;2023-05-28T04:53:29;11.80;;;5.90;;
37199;SDS011;23096;50.892;16.746;2023-05-28T04:55:55;9.70;;;5.90;;
37199;SDS011;23096;50.892;16.746;2023-05-28T04:58:21;8.00;;;5.80;;
37199;SDS011;23096;50.892;16.746;2023-05-28T05:00:46;9.80;;;6.50;;
37199;SDS011;23096;50.892;16.746;2023-05-28T05:03:12;9.40;;;5.40;;
37199;SDS011;23096;50.892;16.746;2023-05-28T05:05:39;18.60;;;6.60;;
37199;SDS011;23096;50.892;16.746;2023-05-28T05:08:06;20.30;;;6.00;;
37199;SDS011;23096;50.892;16.746;2023-05-28T05:10:33;10.70;;;6.30;;
37199;SDS011;23096;50.892;16.746;2023-05-28T05:12:59;10.80;;;5.10;;
37199;SDS011;23096;50.892;16.746;2023-05-28T05:15:25;11.20;;;6.20;;
37199;SDS011;23096;50.892;16.746;2023-05-28T05:17:52;8.60;;;5.00;;
37199;SDS011;23096;50.892;16.746;2023-05-28T05:20:18;9.20;;;5.30;;
37199;SDS011;23096;50.892;16.746;2023-05-28T05:22:43;9.40;;;4.30;;
37199;SDS011;23096;50.892;16.746;2023-05-28T05:25:09;8.70;;;5.20;;
37199;SDS011;23096;50.892;16.746;2023-05-28T05:27:36;10.90;;;5.60;;
37199;SDS011;23096;50.892;16.746;2023-05-28T05:30:02;9.50;;;5.90;;
37199;SDS011;23096;50.892;16.746;2023-05-28T05:32:29;11.60;;;5.50;;
37199;SDS011;23096;50.892;16.746;2023-05-28T05:34:55;12.40;;;6.00;;
37199;SDS011;23096;50.892;16.746;2023-05-28T05:37:28;8.80;;;5.90;;
37199;SDS011;23096;50.892;16.746;2023-05-28T05:40:12;17.90;;;6.90;;
37199;SDS011;23096;50.892;16.746;2023-05-28T05:42:55;7.60;;;5.20;;
37199;SDS011;23096;50.892;16.746;2023-05-28T05:45:21;10.20;;;6.20;;
37199;SDS011;23096;50.892;16.746;2023-05-28T05:47:47;9.40;;;6.20;;
37199;SDS011;23096;50.892;16.746;2023-05-28T05:50:13;8.30;;;6.60;;
37199;SDS011;23096;50.892;16.746;2023-05-28T05:52:39;10.30;;;5.50;;
37199;SDS011;23096;50.892;16.746;2023-05-28T05:55:07;11.30;;;5.80;;
37199;SDS011;23096;50.892;16.746;2023-05-28T05:57:33;8.10;;;4.80;;
37199;SDS011;23096;50.892;16.746;2023-05-28T06:00:02;9.50;;;6.40;;
37199;SDS011;23096;50.892;16.746;2023-05-28T06:02:39;9.90;;;5.70;;
37199;SDS011;23096;50.892;16.746;2023-05-28T06:05:22;11.20;;;6.30;;
37199;SDS011;23096;50.892;16.746;2023-05-28T06:08:19;12.30;;;6.60;;
37199;SDS011;23096;50.892;16.746;2023-05-28T06:11:14;11.30;;;6.50;;
37199;SDS011;23096;50.892;16.746;2023-05-28T06:13:41;10.10;;;6.40;;
37199;SDS011;23096;50.892;16.746;2023-05-28T06:16:06;8.80;;;5.70;;
37199;SDS011;23096;50.892;16.746;2023-05-28T06:18:32;8.70;;;6.00;;
37199;SDS011;23096;50.892;16.746;2023-05-28T06:20:59;11.20;;;6.60;;
37199;SDS011;23096;50.892;16.746;2023-05-28T06:23:25;9.50;;;6.50;;
37199;SDS011;23096;50.892;16.746;2023-05-28T06:25:51;11.00;;;5.90;;
37199;SDS011;23096;50.892;16.746;2023-05-28T06:28:16;9.40;;;5.20;;
37199;SDS011;23096;50.892;16.746;2023-05-28T06:30:42;9.70;;;5.90;;
37199;SDS011;23096;50.892;16.746;2023-05-28T06:33:09;9.90;;;5.90;;
37199;SDS011;23096;50.892;16.746;2023-05-28T06:35:35;11.10;;;6.30;;
37199;SDS011;23096;50.892;16.746;2023-05-28T06:38:01;12.30;;;6.30;;
37199;SDS011;23096;50.892;16.746;2023-05-28T06:40:27;10.70;;;6.00;;
37199;SDS011;23096;50.892;16.746;2023-05-28T06:42:53;10.40;;;5.20;;
37199;SDS011;23096;50.892;16.746;2023-05-28T06:45:30;9.60;;;5.80;;
37199;SDS011;23096;50.892;16.746;2023-05-28T06:48:00;7.80;;;5.10;;
37199;SDS011;23096;50.892;16.746;2023-05-28T06:50:26;10.80;;;5.50;;
37199;SDS011;23096;50.892;16.746;2023-05-28T06:52:52;10.50;;;5.30;;
37199;SDS011;23096;50.892;16.746;2023-05-28T06:55:19;12.30;;;5.80;;
37199;SDS011;23096;50.892;16.746;2023-05-28T06:58:04;14.50;;;5.30;;
37199;SDS011;23096;50.892;16.746;2023-05-28T07:00:50;7.50;;;4.60;;
37199;SDS011;23096;50.892;16.746;2023-05-28T07:03:24;9.60;;;6.10;;
37199;SDS011;23096;50.892;16.746;2023-05-28T07:06:13;9.60;;;5.50;;
37199;SDS011;23096;50.892;16.746;2023-05-28T07:08:41;11.80;;;5.00;;
37199;SDS011;23096;50.892;16.746;2023-05-28T07:11:10;7.80;;;4.90;;
37199;SDS011;23096;50.892;16.746;2023-05-28T07:13:38;9.80;;;5.50;;
37199;SDS011;23096;50.892;16.746;2023-05-28T07:16:04;13.20;;;5.30;;
37199;SDS011;23096;50.892;16.746;2023-05-28T07:18:30;8.80;;;4.60;;
37199;SDS011;23096;50.892;16.746;2023-05-28T07:20:56;10.50;;;4.70;;
37199;SDS011;23096;50.892;16.746;2023-05-28T07:23:29;9.20;;;4.10;;
37199;SDS011;23096;50.892;16.746;2023-05-28T07:25:56;9.00;;;4.70;;
37199;SDS011;23096;50.892;16.746;2023-05-28T07:28:22;10.00;;;4.60;;
37199;SDS011;23096;50.892;16.746;2023-05-28T07:30:48;9.10;;;4.40;;
37199;SDS011;23096;50.892;16.746;2023-05-28T07:33:13;10.30;;;4.80;;
37199;SDS011;23096;50.892;16.746;2023-05-28T07:35:40;7.80;;;3.90;;
37199;SDS011;23096;50.892;16.746;2023-05-28T07:38:07;7.60;;;4.40;;
37199;SDS011;23096;50.892;16.746;2023-05-28T07:40:33;7.90;;;3.90;;
37199;SDS011;23096;50.892;16.746;2023-05-28T07:43:09;11.50;;;5.40;;
37199;SDS011;23096;50.892;16.746;2023-05-28T07:45:34;6.40;;;4.40;;
37199;SDS011;23096;50.892;16.746;2023-05-28T07:48:01;6.10;;;4.00;;
37199;SDS011;23096;50.892;16.746;2023-05-28T07:50:37;5.90;;;3.70;;
37199;SDS011;23096;50.892;16.746;2023-05-28T07:53:14;10.40;;;4.50;;
37199;SDS011;23096;50.892;16.746;2023-05-28T07:55:41;8.70;;;4.40;;
37199;SDS011;23096;50.892;16.746;2023-05-28T07:58:07;8.00;;;4.50;;
37199;SDS011;23096;50.892;16.746;2023-05-28T08:00:33;8.10;;;4.10;;
37199;SDS011;23096;50.892;16.746;2023-05-28T08:03:02;8.10;;;4.30;;
37199;SDS011;23096;50.892;16.746;2023-05-28T08:05:39;9.80;;;4.40;;
37199;SDS011;23096;50.892;16.746;2023-05-28T08:08:05;6.20;;;4.00;;
37199;SDS011;23096;50.892;16.746;2023-05-28T08:10:31;8.20;;;4.00;;
37199;SDS011;23096;50.892;16.746;2023-05-28T08:12:57;7.80;;;4.00;;
37199;SDS011;23096;50.892;16.746;2023-05-28T08:15:23;6.80;;;4.00;;
37199;SDS011;23096;50.892;16.746;2023-05-28T08:17:49;6.80;;;3.70;;
37199;SDS011;23096;50.892;16.746;2023-05-28T08:20:16;7.40;;;3.90;;
37199;SDS011;23096;50.892;16.746;2023-05-28T08:25:14;5.10;;;3.40;;
37199;SDS011;23096;50.892;16.746;2023-05-28T08:27:40;5.50;;;3.30;;
37199;SDS011;23096;50.892;16.746;2023-05-28T08:30:06;5.30;;;3.20;;
37199;SDS011;23096;50.892;16.746;2023-05-28T08:32:39;6.30;;;3.90;;
37199;SDS011;23096;50.892;16.746;2023-05-28T08:35:05;6.40;;;3.40;;
37199;SDS011;23096;50.892;16.746;2023-05-28T08:37:31;5.90;;;3.70;;
37199;SDS011;23096;50.892;16.746;2023-05-28T08:40:23;6.30;;;3.30;;
37199;SDS011;23096;50.892;16.746;2023-05-28T08:42:49;7.10;;;3.70;;
37199;SDS011;23096;50.892;16.746;2023-05-28T08:45:15;7.30;;;3.80;;
37199;SDS011;23096;50.892;16.746;2023-05-28T08:47:43;5.90;;;2.70;;
37199;SDS011;23096;50.892;16.746;2023-05-28T08:50:15;5.30;;;3.00;;
37199;SDS011;23096;50.892;16.746;2023-05-28T08:53:04;8.00;;;2.90;;
37199;SDS011;23096;50.892;16.746;2023-05-28T08:55:34;5.00;;;3.60;;
37199;SDS011;23096;50.892;16.746;2023-05-28T08:58:13;7.60;;;2.70;;
37199;SDS011;23096;50.892;16.746;2023-05-28T09:00:41;4.90;;;2.60;;
37199;SDS011;23096;50.892;16.746;2023-05-28T09:03:26;5.20;;;2.70;;
37199;SDS011;23096;50.892;16.746;2023-05-28T09:05:52;5.30;;;2.70;;
37199;SDS011;23096;50.892;16.746;2023-05-28T09:08:18;6.30;;;2.60;;
37199;SDS011;23096;50.892;16.746;2023-05-28T09:10:44;7.60;;;3.10;;
37199;SDS011;23096;50.892;16.746;2023-05-28T09:13:10;3.20;;;2.10;;
37199;SDS011;23096;50.892;16.746;2023-05-28T09:15:35;7.10;;;2.30;;
37199;SDS011;23096;50.892;16.746;2023-05-28T09:18:03;5.40;;;2.50;;
37199;SDS011;23096;50.892;16.746;2023-05-28T09:20:30;7.90;;;2.60;;
37199;SDS011;23096;50.892;16.746;2023-05-28T09:23:00;3.70;;;2.60;;
37199;SDS011;23096;50.892;16.746;2023-05-28T09:25:54;8.00;;;3.10;;
37199;SDS011;23096;50.892;16.746;2023-05-28T09:28:25;3.70;;;2.50;;
37199;SDS011;23096;50.892;16.746;2023-05-28T09:31:04;4.60;;;1.90;;
37199;SDS011;23096;50.892;16.746;2023-05-28T09:33:32;3.90;;;2.60;;
37199;SDS011;23096;50.892;16.746;2023-05-28T09:35:58;2.90;;;1.70;;
37199;SDS011;23096;50.892;16.746;2023-05-28T09:38:25;5.90;;;2.10;;
37199;SDS011;23096;50.892;16.746;2023-05-28T09:40:53;6.30;;;2.00;;
37199;SDS011;23096;50.892;16.746;2023-05-28T09:43:26;5.10;;;1.90;;
37199;SDS011;23096;50.892;16.746;2023-05-28T09:46:08;2.40;;;1.90;;
37199;SDS011;23096;50.892;16.746;2023-05-28T09:48:34;6.00;;;1.80;;
37199;SDS011;23096;50.892;16.746;2023-05-28T09:51:04;7.40;;;2.30;;
37199;SDS011;23096;50.892;16.746;2023-05-28T09:53:31;4.30;;;1.80;;
37199;SDS011;23096;50.892;16.746;2023-05-28T09:55:59;1.90;;;1.60;;
37199;SDS011;23096;50.892;16.746;2023-05-28T09:58:32;7.70;;;2.50;;
37199;SDS011;23096;50.892;16.746;2023-05-28T10:01:07;5.60;;;1.80;;
37199;SDS011;23096;50.892;16.746;2023-05-28T10:03:38;10.50;;;2.20;;
37199;SDS011;23096;50.892;16.746;2023-05-28T10:06:14;5.70;;;2.30;;
37199;SDS011;23096;50.892;16.746;2023-05-28T10:08:43;3.50;;;2.50;;
37199;SDS011;23096;50.892;16.746;2023-05-28T10:11:15;4.30;;;2.40;;
37199;SDS011;23096;50.892;16.746;2023-05-28T10:13:41;3.50;;;1.60;;
37199;SDS011;23096;50.892;16.746;2023-05-28T10:16:08;4.20;;;1.60;;
37199;SDS011;23096;50.892;16.746;2023-05-28T10:18:34;5.20;;;1.60;;
37199;SDS011;23096;50.892;16.746;2023-05-28T10:21:03;4.30;;;1.90;;
37199;SDS011;23096;50.892;16.746;2023-05-28T10:23:31;2.30;;;1.90;;
37199;SDS011;23096;50.892;16.746;2023-05-28T10:25:57;5.40;;;2.10;;
37199;SDS011;23096;50.892;16.746;2023-05-28T10:28:23;3.20;;;1.70;;
37199;SDS011;23096;50.892;16.746;2023-05-28T10:31:07;3.90;;;2.00;;
37199;SDS011;23096;50.892;16.746;2023-05-28T10:33:39;3.80;;;1.40;;
37199;SDS011;23096;50.892;16.746;2023-05-28T10:36:08;6.30;;;1.80;;
37199;SDS011;23096;50.892;16.746;2023-05-28T10:38:45;3.20;;;1.80;;
37199;SDS011;23096;50.892;16.746;2023-05-28T10:41:33;2.50;;;2.00;;
37199;SDS011;23096;50.892;16.746;2023-05-28T10:44:06;4.40;;;1.80;;
37199;SDS011;23096;50.892;16.746;2023-05-28T10:46:38;4.90;;;1.60;;
37199;SDS011;23096;50.892;16.746;2023-05-28T10:49:14;5.90;;;2.00;;
37199;SDS011;23096;50.892;16.746;2023-05-28T10:52:00;2.90;;;1.40;;
37199;SDS011;23096;50.892;16.746;2023-05-28T10:57:08;2.30;;;1.30;;
37199;SDS011;23096;50.892;16.746;2023-05-28T10:59:42;3.50;;;2.00;;
37199;SDS011;23096;50.892;16.746;2023-05-28T11:02:24;6.50;;;1.60;;
37199;SDS011;23096;50.892;16.746;2023-05-28T11:04:58;4.70;;;1.90;;
37199;SDS011;23096;50.892;16.746;2023-05-28T11:07:32;2.70;;;1.50;;
37199;SDS011;23096;50.892;16.746;2023-05-28T11:09:59;5.20;;;2.90;;
37199;SDS011;23096;50.892;16.746;2023-05-28T11:12:26;2.80;;;1.80;;
37199;SDS011;23096;50.892;16.746;2023-05-28T11:14:53;5.50;;;1.80;;
37199;SDS011;23096;50.892;16.746;2023-05-28T11:17:19;2.30;;;1.40;;
37199;SDS011;23096;50.892;16.746;2023-05-28T11:19:46;3.90;;;1.80;;
37199;SDS011;23096;50.892;16.746;2023-05-28T11:22:13;2.60;;;1.80;;
37199;SDS011;23096;50.892;16.746;2023-05-28T11:24:54;4.00;;;2.20;;
37199;SDS011;23096;50.892;16.746;2023-05-28T11:27:27;3.90;;;1.70;;
37199;SDS011;23096;50.892;16.746;2023-05-28T11:29:55;4.30;;;1.90;;
37199;SDS011;23096;50.892;16.746;2023-05-28T11:32:22;2.20;;;1.20;;
37199;SDS011;23096;50.892;16.746;2023-05-28T11:34:48;7.10;;;1.60;;
37199;SDS011;23096;50.892;16.746;2023-05-28T11:37:15;2.10;;;1.30;;
37199;SDS011;23096;50.892;16.746;2023-05-28T11:39:49;2.10;;;1.50;;
37199;SDS011;23096;50.892;16.746;2023-05-28T11:42:19;3.00;;;1.90;;
37199;SDS011;23096;50.892;16.746;2023-05-28T11:44:46;4.40;;;2.10;;
37199;SDS011;23096;50.892;16.746;2023-05-28T11:47:13;3.10;;;2.00;;
37199;SDS011;23096;50.892;16.746;2023-05-28T11:49:39;3.40;;;1.80;;
37199;SDS011;23096;50.892;16.746;2023-05-28T11:52:09;4.20;;;1.50;;
37199;SDS011;23096;50.892;16.746;2023-05-28T11:54:39;12.10;;;1.80;;
37199;SDS011;23096;50.892;16.746;2023-05-28T11:57:07;3.70;;;1.80;;
37199;SDS011;23096;50.892;16.746;2023-05-28T11:59:33;5.70;;;1.90;;
37199;SDS011;23096;50.892;16.746;2023-05-28T12:02:09;1.90;;;1.40;;
37199;SDS011;23096;50.892;16.746;2023-05-28T12:04:35;4.00;;;1.40;;
37199;SDS011;23096;50.892;16.746;2023-05-28T12:07:01;4.00;;;1.70;;
37199;SDS011;23096;50.892;16.746;2023-05-28T12:09:26;1.70;;;1.50;;
37199;SDS011;23096;50.892;16.746;2023-05-28T12:12:02;4.00;;;1.60;;
37199;SDS011;23096;50.892;16.746;2023-05-28T12:14:29;2.40;;;1.20;;
37199;SDS011;23096;50.892;16.746;2023-05-28T12:17:03;3.10;;;1.50;;
37199;SDS011;23096;50.892;16.746;2023-05-28T12:19:33;3.80;;;1.90;;
37199;SDS011;23096;50.892;16.746;2023-05-28T12:21:58;3.90;;;1.60;;
37199;SDS011;23096;50.892;16.746;2023-05-28T12:24:25;3.60;;;1.50;;
37199;SDS011;23096;50.892;16.746;2023-05-28T12:26:52;1.70;;;1.50;;
37199;SDS011;23096;50.892;16.746;2023-05-28T12:29:18;4.20;;;1.70;;
37199;SDS011;23096;50.892;16.746;2023-05-28T12:31:44;3.20;;;1.80;;
37199;SDS011;23096;50.892;16.746;2023-05-28T12:34:09;2.80;;;1.40;;
37199;SDS011;23096;50.892;16.746;2023-05-28T12:36:35;7.10;;;1.40;;
37199;SDS011;23096;50.892;16.746;2023-05-28T12:39:01;4.20;;;1.50;;
37199;SDS011;23096;50.892;16.746;2023-05-28T12:41:26;4.50;;;1.50;;
37199;SDS011;23096;50.892;16.746;2023-05-28T12:43:52;3.70;;;1.40;;
37199;SDS011;23096;50.892;16.746;2023-05-28T12:46:18;3.20;;;1.20;;
37199;SDS011;23096;50.892;16.746;2023-05-28T12:48:43;2.70;;;1.50;;
37199;SDS011;23096;50.892;16.746;2023-05-28T12:51:09;4.10;;;1.40;;
37199;SDS011;23096;50.892;16.746;2023-05-28T12:53:35;6.00;;;1.30;;
37199;SDS011;23096;50.892;16.746;2023-05-28T12:56:01;3.70;;;1.60;;
37199;SDS011;23096;50.892;16.746;2023-05-28T12:58:26;4.40;;;1.80;;
37199;SDS011;23096;50.892;16.746;2023-05-28T13:00:52;3.80;;;1.70;;
37199;SDS011;23096;50.892;16.746;2023-05-28T13:03:18;2.50;;;1.40;;
37199;SDS011;23096;50.892;16.746;2023-05-28T13:05:43;2.70;;;1.60;;
37199;SDS011;23096;50.892;16.746;2023-05-28T13:08:08;2.90;;;1.40;;
37199;SDS011;23096;50.892;16.746;2023-05-28T13:10:34;3.90;;;1.50;;
37199;SDS011;23096;50.892;16.746;2023-05-28T13:12:59;2.90;;;1.20;;
37199;SDS011;23096;50.892;16.746;2023-05-28T13:15:25;3.30;;;1.60;;
37199;SDS011;23096;50.892;16.746;2023-05-28T13:17:50;3.00;;;1.70;;
37199;SDS011;23096;50.892;16.746;2023-05-28T13:20:16;1.70;;;1.20;;
37199;SDS011;23096;50.892;16.746;2023-05-28T13:22:42;3.20;;;1.50;;
37199;SDS011;23096;50.892;16.746;2023-05-28T13:25:08;3.90;;;1.60;;
37199;SDS011;23096;50.892;16.746;2023-05-28T13:27:34;2.00;;;1.20;;
37199;SDS011;23096;50.892;16.746;2023-05-28T13:30:00;2.90;;;1.30;;
37199;SDS011;23096;50.892;16.746;2023-05-28T13:32:27;3.40;;;1.70;;
37199;SDS011;23096;50.892;16.746;2023-05-28T13:34:53;3.20;;;2.10;;
37199;SDS011;23096;50.892;16.746;2023-05-28T13:37:20;5.90;;;1.50;;
37199;SDS011;23096;50.892;16.746;2023-05-28T13:39:46;3.50;;;1.50;;
37199;SDS011;23096;50.892;16.746;2023-05-28T13:42:12;3.60;;;1.70;;
37199;SDS011;23096;50.892;16.746;2023-05-28T13:44:38;3.70;;;1.60;;
37199;SDS011;23096;50.892;16.746;2023-05-28T13:47:05;5.70;;;1.10;;
37199;SDS011;23096;50.892;16.746;2023-05-28T13:49:30;2.70;;;1.60;;
37199;SDS011;23096;50.892;16.746;2023-05-28T13:51:56;1.20;;;1.00;;
37199;SDS011;23096;50.892;16.746;2023-05-28T13:54:21;2.30;;;1.30;;
37199;SDS011;23096;50.892;16.746;2023-05-28T13:56:47;2.00;;;1.10;;
37199;SDS011;23096;50.892;16.746;2023-05-28T13:59:12;2.40;;;1.50;;
37199;SDS011;23096;50.892;16.746;2023-05-28T14:01:38;4.00;;;1.40;;
37199;SDS011;23096;50.892;16.746;2023-05-28T14:04:03;5.70;;;1.20;;
37199;SDS011;23096;50.892;16.746;2023-05-28T14:06:29;2.30;;;1.80;;
37199;SDS011;23096;50.892;16.746;2023-05-28T14:08:56;3.40;;;1.50;;
37199;SDS011;23096;50.892;16.746;2023-05-28T14:11:22;4.70;;;1.80;;
37199;SDS011;23096;50.892;16.746;2023-05-28T14:13:47;1.60;;;1.30;;
37199;SDS011;23096;50.892;16.746;2023-05-28T14:16:13;4.10;;;1.70;;
37199;SDS011;23096;50.892;16.746;2023-05-28T14:18:38;1.80;;;1.20;;
37199;SDS011;23096;50.892;16.746;2023-05-28T14:21:04;6.20;;;1.50;;
37199;SDS011;23096;50.892;16.746;2023-05-28T14:23:31;3.10;;;1.40;;
37199;SDS011;23096;50.892;16.746;2023-05-28T14:25:57;4.90;;;1.70;;
37199;SDS011;23096;50.892;16.746;2023-05-28T14:28:22;3.00;;;1.20;;
37199;SDS011;23096;50.892;16.746;2023-05-28T14:30:48;6.40;;;1.60;;
37199;SDS011;23096;50.892;16.746;2023-05-28T14:33:13;3.30;;;1.70;;
37199;SDS011;23096;50.892;16.746;2023-05-28T14:35:39;3.40;;;1.70;;
37199;SDS011;23096;50.892;16.746;2023-05-28T14:38:04;3.00;;;1.50;;
37199;SDS011;23096;50.892;16.746;2023-05-28T14:40:30;5.60;;;1.60;;
37199;SDS011;23096;50.892;16.746;2023-05-28T14:42:56;3.60;;;1.60;;
37199;SDS011;23096;50.892;16.746;2023-05-28T14:45:21;2.40;;;1.30;;